createdAt,value
2023-01-29T00:00:42.538Z,56.10
2023-01-29T00:03:09.252Z,56.00
2023-01-29T00:05:35.996Z,56.00
2023-01-29T00:08:02.669Z,55.90
2023-01-29T00:10:29.253Z,55.80
2023-01-29T00:12:55.916Z,55.80
2023-01-29T00:15:22.560Z,55.80
2023-01-29T00:17:49.296Z,55.70
2023-01-29T00:20:16.381Z,55.70
2023-01-29T00:22:43.153Z,55.60
2023-01-29T00:25:11.391Z,55.50
2023-01-29T00:27:38.051Z,55.50
2023-01-29T00:30:16.351Z,55.40
2023-01-29T00:32:43.131Z,55.30
2023-01-29T00:35:10.151Z,55.30
2023-01-29T00:37:38.307Z,55.30
2023-01-29T00:40:05.742Z,55.30
2023-01-29T00:42:50.801Z,55.30
2023-01-29T00:45:17.469Z,55.20
2023-01-29T00:47:44.091Z,55.20
2023-01-29T00:50:12.069Z,55.00
2023-01-29T00:52:40.820Z,55.00
2023-01-29T00:55:09.616Z,54.40
2023-01-29T00:57:37.732Z,54.90
2023-01-29T01:00:07.036Z,54.90
2023-01-29T01:02:52.529Z,54.90
2023-01-29T01:05:19.653Z,54.30
2023-01-29T01:07:51.828Z,54.70
2023-01-29T01:10:24.813Z,54.60
2023-01-29T01:12:58.097Z,54.60
2023-01-29T01:15:30.494Z,54.50
2023-01-29T01:18:00.024Z,54.50
2023-01-29T01:20:29.488Z,54.40
2023-01-29T01:22:56.741Z,54.30
2023-01-29T01:25:25.105Z,54.40
2023-01-29T01:27:56.268Z,54.30
2023-01-29T01:30:24.084Z,54.30
2023-01-29T01:32:51.023Z,54.20
2023-01-29T01:35:18.258Z,53.80
2023-01-29T01:37:44.877Z,54.20
2023-01-29T01:40:22.932Z,54.10
2023-01-29T01:42:51.619Z,54.20
2023-01-29T01:45:33.046Z,54.10
2023-01-29T01:48:05.479Z,54.00
2023-01-29T01:50:49.218Z,54.00
2023-01-29T01:53:41.814Z,53.90
2023-01-29T01:56:21.224Z,53.90
2023-01-29T01:58:52.563Z,53.90
2023-01-29T02:01:26.817Z,53.90
2023-01-29T02:04:24.504Z,53.80
2023-01-29T02:07:12.471Z,53.80
2023-01-29T02:10:03.735Z,53.80
2023-01-29T02:12:31.156Z,53.80
2023-01-29T02:14:57.997Z,53.60
2023-01-29T02:17:24.791Z,53.70
2023-01-29T02:20:24.388Z,53.70
2023-01-29T02:23:30.227Z,53.60
2023-01-29T02:26:24.541Z,53.50
2023-01-29T02:29:20.003Z,53.50
2023-01-29T02:32:10.230Z,53.60
2023-01-29T02:35:06.950Z,53.60
2023-01-29T02:37:45.379Z,53.50
2023-01-29T02:40:45.353Z,53.50
2023-01-29T02:43:32.414Z,53.50
2023-01-29T02:46:16.463Z,53.50
2023-01-29T02:49:06.360Z,53.40
2023-01-29T02:51:39.067Z,53.40
2023-01-29T02:54:19.361Z,53.30
2023-01-29T02:56:53.804Z,53.30
2023-01-29T02:59:36.036Z,53.30
2023-01-29T03:02:08.683Z,53.30
2023-01-29T03:04:42.872Z,53.20
2023-01-29T03:07:40.925Z,53.30
2023-01-29T03:10:15.814Z,53.30
2023-01-29T03:12:45.594Z,53.30
2023-01-29T03:15:24.904Z,53.20
2023-01-29T03:18:01.436Z,53.00
2023-01-29T03:20:34.359Z,53.20
2023-01-29T03:23:07.717Z,53.10
2023-01-29T03:25:54.887Z,52.90
2023-01-29T03:28:41.278Z,52.90
2023-01-29T03:31:30.490Z,52.90
2023-01-29T03:34:08.211Z,52.80
2023-01-29T03:36:45.237Z,52.90
2023-01-29T03:39:13.630Z,52.90
2023-01-29T03:42:00.534Z,52.90
2023-01-29T03:45:14.668Z,52.90
2023-01-29T03:47:50.124Z,53.00
2023-01-29T03:50:25.620Z,52.90
2023-01-29T03:53:17.133Z,52.80
2023-01-29T03:55:54.164Z,52.80
2023-01-29T03:58:34.626Z,52.70
2023-01-29T04:01:15.874Z,52.80
2023-01-29T04:03:49.787Z,52.70
2023-01-29T04:06:23.655Z,52.60
2023-01-29T04:09:00.837Z,52.60
2023-01-29T04:11:30.376Z,52.50
2023-01-29T04:13:58.113Z,52.60
2023-01-29T04:16:29.097Z,52.50
2023-01-29T04:18:56.609Z,52.40
2023-01-29T04:21:24.855Z,52.40
2023-01-29T04:23:51.524Z,52.50
2023-01-29T04:26:37.803Z,52.40
2023-01-29T04:29:10.629Z,52.40
2023-01-29T04:31:56.442Z,52.50
2023-01-29T04:34:29.559Z,52.40
2023-01-29T04:37:37.577Z,52.30
2023-01-29T04:40:23.585Z,52.20
2023-01-29T04:42:56.738Z,52.30
2023-01-29T04:45:39.353Z,52.20
2023-01-29T04:48:19.624Z,52.20
2023-01-29T04:51:01.342Z,52.30
2023-01-29T04:53:50.287Z,52.20
2023-01-29T04:56:29.442Z,52.20
2023-01-29T04:59:04.441Z,52.20
2023-01-29T05:01:33.341Z,52.20
2023-01-29T05:04:05.103Z,52.80
2023-01-29T05:06:32.692Z,52.20
2023-01-29T05:09:01.763Z,52.20
2023-01-29T05:11:32.020Z,52.20
2023-01-29T05:14:01.087Z,52.20
2023-01-29T05:16:41.892Z,52.20
2023-01-29T05:19:13.408Z,52.10
2023-01-29T05:21:42.366Z,52.10
2023-01-29T05:24:15.553Z,52.10
2023-01-29T05:27:02.866Z,52.10
2023-01-29T05:29:29.472Z,52.10
2023-01-29T05:31:56.181Z,52.10
2023-01-29T05:34:22.841Z,51.60
2023-01-29T05:36:49.941Z,52.10
2023-01-29T05:39:16.934Z,52.10
2023-01-29T05:41:43.787Z,52.50
2023-01-29T05:44:10.965Z,52.10
2023-01-29T05:46:38.226Z,52.10
2023-01-29T05:49:05.690Z,52.10
2023-01-29T05:51:32.432Z,52.10
2023-01-29T05:54:02.196Z,52.20
2023-01-29T05:56:28.766Z,51.60
2023-01-29T05:58:56.340Z,52.20
2023-01-29T06:01:25.512Z,52.20
2023-01-29T06:03:52.364Z,52.20
2023-01-29T06:06:19.010Z,52.30
2023-01-29T06:08:45.814Z,52.30
2023-01-29T06:11:13.777Z,52.30
2023-01-29T06:13:40.925Z,52.40
2023-01-29T06:16:09.019Z,53.00
2023-01-29T06:18:36.704Z,52.30
2023-01-29T06:21:08.588Z,52.40
2023-01-29T06:23:35.252Z,52.40
2023-01-29T06:26:03.453Z,52.00
2023-01-29T06:28:30.465Z,52.50
2023-01-29T06:31:08.354Z,52.50
2023-01-29T06:33:43.077Z,52.60
2023-01-29T06:36:10.245Z,52.60
2023-01-29T06:38:36.841Z,52.60
2023-01-29T06:41:11.489Z,52.60
2023-01-29T06:43:39.026Z,52.60
2023-01-29T06:46:07.900Z,52.70
2023-01-29T06:48:34.951Z,52.80
2023-01-29T06:51:03.562Z,52.80
2023-01-29T06:53:34.562Z,52.50
2023-01-29T06:56:01.168Z,53.00
2023-01-29T06:58:27.798Z,52.90
2023-01-29T07:00:54.449Z,52.90
2023-01-29T07:03:21.253Z,53.00
2023-01-29T07:05:52.466Z,52.50
2023-01-29T07:08:22.481Z,53.00
2023-01-29T07:10:49.978Z,53.00
2023-01-29T07:13:17.003Z,53.00
2023-01-29T07:15:44.421Z,52.90
2023-01-29T07:18:14.010Z,53.00
2023-01-29T07:20:41.531Z,53.00
2023-01-29T07:23:12.119Z,53.00
2023-01-29T07:25:39.449Z,52.40
2023-01-29T07:28:06.627Z,53.00
2023-01-29T07:30:34.398Z,53.00
2023-01-29T07:33:02.897Z,53.00
2023-01-29T07:35:29.535Z,53.00
2023-01-29T07:37:56.171Z,53.00
2023-01-29T07:40:22.915Z,53.00
2023-01-29T07:42:49.555Z,53.00
2023-01-29T07:45:16.193Z,53.00
2023-01-29T07:47:42.807Z,53.10
2023-01-29T07:50:10.014Z,52.90
2023-01-29T07:52:36.733Z,53.00
2023-01-29T07:55:03.436Z,53.00
2023-01-29T07:57:30.574Z,53.00
2023-01-29T07:59:57.261Z,52.90
2023-01-29T08:02:23.876Z,52.90
2023-01-29T08:04:53.525Z,52.90
2023-01-29T08:07:20.148Z,52.40
2023-01-29T08:09:48.207Z,52.90
2023-01-29T08:12:14.908Z,52.90
2023-01-29T08:14:41.770Z,52.80
2023-01-29T08:17:08.366Z,52.80
2023-01-29T08:19:34.958Z,52.70
2023-01-29T08:22:01.585Z,52.80
2023-01-29T08:24:36.141Z,52.70
2023-01-29T08:27:14.465Z,52.70
2023-01-29T08:29:41.037Z,52.80
2023-01-29T08:32:11.146Z,52.80
2023-01-29T08:34:37.777Z,52.80
2023-01-29T08:37:04.557Z,52.80
2023-01-29T08:39:32.620Z,52.90
2023-01-29T08:42:00.339Z,52.80
2023-01-29T08:44:26.995Z,52.80
2023-01-29T08:46:53.597Z,52.80
2023-01-29T08:49:20.201Z,52.80
2023-01-29T08:51:46.898Z,53.50
2023-01-29T08:54:13.532Z,52.90
2023-01-29T08:56:40.137Z,52.90
2023-01-29T08:59:06.779Z,52.90
2023-01-29T09:01:33.405Z,52.80
2023-01-29T09:04:00.149Z,52.30
2023-01-29T09:06:26.857Z,52.80
2023-01-29T09:08:53.453Z,53.40
2023-01-29T09:11:20.070Z,52.70
2023-01-29T09:13:46.644Z,52.00
2023-01-29T09:16:13.300Z,52.40
2023-01-29T09:18:40.042Z,52.40
2023-01-29T09:21:06.757Z,52.50
2023-01-29T09:23:33.781Z,52.60
2023-01-29T09:26:00.478Z,52.40
2023-01-29T09:28:27.445Z,52.50
2023-01-29T09:30:54.135Z,52.50
2023-01-29T09:33:20.856Z,52.50
2023-01-29T09:35:47.489Z,52.50
2023-01-29T09:38:14.368Z,52.60
2023-01-29T09:41:05.895Z,52.70
2023-01-29T09:43:45.475Z,52.60
2023-01-29T09:46:36.643Z,52.70
2023-01-29T09:49:29.022Z,52.70
2023-01-29T09:52:04.621Z,52.70
2023-01-29T09:55:00.827Z,52.70
2023-01-29T09:57:39.014Z,52.70
2023-01-29T10:00:06.406Z,52.80
2023-01-29T10:02:59.111Z,52.90
2023-01-29T10:05:45.988Z,52.40
2023-01-29T10:08:31.044Z,53.00
2023-01-29T10:11:23.265Z,53.00
2023-01-29T10:14:08.490Z,53.10
2023-01-29T10:16:48.723Z,53.10
2023-01-29T10:19:36.595Z,53.10
2023-01-29T10:22:16.562Z,53.20
2023-01-29T10:24:53.865Z,52.60
2023-01-29T10:27:21.595Z,53.10
2023-01-29T10:29:52.996Z,52.80
2023-01-29T10:32:23.341Z,52.60
2023-01-29T10:34:58.694Z,52.40
2023-01-29T10:37:38.668Z,52.10
2023-01-29T10:40:21.102Z,51.60
2023-01-29T10:43:10.499Z,51.30
2023-01-29T10:45:50.824Z,51.20
2023-01-29T10:48:33.833Z,51.10
2023-01-29T10:51:34.481Z,51.10
2023-01-29T10:54:33.273Z,50.80
2023-01-29T10:57:31.920Z,51.20
2023-01-29T11:00:21.974Z,51.20
2023-01-29T11:02:50.673Z,51.20
2023-01-29T11:05:32.263Z,50.80
2023-01-29T11:08:16.038Z,51.20
2023-01-29T11:11:15.696Z,51.30
2023-01-29T11:13:50.835Z,51.50
2023-01-29T11:16:17.725Z,51.50
2023-01-29T11:18:54.807Z,51.60
2023-01-29T11:21:22.124Z,51.60
2023-01-29T11:23:49.203Z,51.70
2023-01-29T11:26:20.771Z,51.80
2023-01-29T11:28:51.407Z,51.80
2023-01-29T11:31:23.493Z,51.80
2023-01-29T11:33:53.959Z,51.80
2023-01-29T11:36:34.050Z,52.50
2023-01-29T11:39:24.607Z,51.90
2023-01-29T11:41:57.427Z,52.00
2023-01-29T11:44:28.912Z,51.60
2023-01-29T11:46:58.918Z,52.10
2023-01-29T11:49:35.079Z,52.20
2023-01-29T11:52:05.357Z,52.20
2023-01-29T11:54:37.967Z,52.20
2023-01-29T11:57:05.395Z,52.20
2023-01-29T11:59:48.795Z,52.30
2023-01-29T12:02:21.222Z,52.30
2023-01-29T12:04:48.584Z,52.40
2023-01-29T12:07:17.788Z,52.40
2023-01-29T12:10:31.361Z,52.50
2023-01-29T12:13:24.754Z,52.50
2023-01-29T12:16:25.553Z,52.60
2023-01-29T12:19:10.279Z,52.60
2023-01-29T12:21:47.393Z,52.70
2023-01-29T12:24:44.762Z,52.70
2023-01-29T12:27:48.211Z,52.80
2023-01-29T12:30:23.576Z,52.80
2023-01-29T12:32:50.188Z,52.80
2023-01-29T12:35:25.318Z,52.80
2023-01-29T12:38:20.205Z,52.90
2023-01-29T12:41:17.853Z,52.90
2023-01-29T12:43:55.845Z,52.90
2023-01-29T12:46:27.055Z,52.40
2023-01-29T12:48:56.944Z,53.00
2023-01-29T12:51:29.725Z,52.90
2023-01-29T12:53:59.690Z,53.00
2023-01-29T12:56:31.952Z,53.10
2023-01-29T12:59:02.467Z,53.10
2023-01-29T13:01:32.931Z,53.00
2023-01-29T13:04:02.280Z,53.10
2023-01-29T13:06:36.512Z,53.10
2023-01-29T13:09:12.024Z,53.10
2023-01-29T13:12:03.593Z,53.10
2023-01-29T13:14:47.865Z,53.20
2023-01-29T13:17:21.209Z,53.30
2023-01-29T13:19:51.295Z,53.30
2023-01-29T13:22:24.613Z,53.40
2023-01-29T13:25:03.685Z,53.40
2023-01-29T13:27:33.929Z,53.50
2023-01-29T13:30:01.340Z,53.70
2023-01-29T13:32:30.335Z,53.80
2023-01-29T13:35:01.142Z,53.80
2023-01-29T13:37:32.765Z,53.90
2023-01-29T13:40:01.802Z,53.90
2023-01-29T13:42:48.971Z,53.90
2023-01-29T13:45:35.308Z,54.10
2023-01-29T13:48:19.948Z,54.10
2023-01-29T13:50:47.244Z,54.10
2023-01-29T13:53:26.832Z,54.10
2023-01-29T13:55:53.573Z,54.10
2023-01-29T13:58:32.065Z,54.10
2023-01-29T14:01:01.183Z,54.20
2023-01-29T14:03:29.916Z,54.10
2023-01-29T14:06:02.602Z,54.20
2023-01-29T14:08:34.757Z,54.10
2023-01-29T14:11:35.646Z,54.10
2023-01-29T14:14:02.365Z,54.20
2023-01-29T14:16:35.407Z,54.00
2023-01-29T14:19:04.174Z,54.10
2023-01-29T14:21:35.846Z,54.00
2023-01-29T14:24:16.016Z,53.90
2023-01-29T14:26:48.100Z,54.00
2023-01-29T14:29:39.267Z,53.80
2023-01-29T14:32:20.227Z,53.80
2023-01-29T14:34:52.014Z,53.80
2023-01-29T14:37:36.646Z,53.80
2023-01-29T14:40:25.005Z,53.80
2023-01-29T14:43:03.942Z,53.80
2023-01-29T14:45:30.641Z,53.30
2023-01-29T14:47:57.281Z,53.80
2023-01-29T14:50:31.666Z,53.60
2023-01-29T14:53:25.621Z,53.60
2023-01-29T14:56:00.849Z,53.70
2023-01-29T14:58:38.519Z,53.70
2023-01-29T15:01:15.850Z,53.80
2023-01-29T15:03:46.429Z,53.30
2023-01-29T15:06:19.544Z,53.80
2023-01-29T15:08:53.906Z,53.80
2023-01-29T15:11:36.226Z,53.80
2023-01-29T15:14:26.085Z,53.90
2023-01-29T15:17:18.031Z,53.90
2023-01-29T15:19:50.296Z,53.90
2023-01-29T15:22:22.206Z,53.90
2023-01-29T15:25:05.045Z,54.00
2023-01-29T15:27:32.315Z,54.00
2023-01-29T15:30:02.288Z,54.00
2023-01-29T15:32:39.754Z,54.10
2023-01-29T15:35:28.102Z,53.70
2023-01-29T15:38:00.761Z,54.20
2023-01-29T15:40:27.608Z,54.20
2023-01-29T15:42:54.336Z,54.30
2023-01-29T15:45:27.289Z,54.30
2023-01-29T15:47:59.115Z,54.30
2023-01-29T15:50:25.865Z,54.30
2023-01-29T15:52:54.980Z,54.60
2023-01-29T15:55:23.648Z,54.40
2023-01-29T15:57:50.725Z,54.40
2023-01-29T16:00:25.995Z,54.50
2023-01-29T16:02:53.316Z,54.50
2023-01-29T16:05:28.040Z,54.60
2023-01-29T16:07:56.482Z,54.60
2023-01-29T16:10:26.777Z,54.60
2023-01-29T16:12:53.882Z,54.60
2023-01-29T16:15:37.866Z,54.10
2023-01-29T16:18:21.206Z,54.60
2023-01-29T16:20:52.370Z,54.70
2023-01-29T16:23:22.789Z,54.70
2023-01-29T16:25:50.601Z,55.30
2023-01-29T16:28:18.811Z,54.70
2023-01-29T16:30:45.903Z,54.70
2023-01-29T16:33:15.644Z,54.70
2023-01-29T16:35:42.657Z,54.70
2023-01-29T16:38:29.929Z,54.70
2023-01-29T16:41:14.698Z,54.70
2023-01-29T16:43:46.820Z,54.30
2023-01-29T16:46:20.354Z,54.80
2023-01-29T16:48:47.647Z,54.80
2023-01-29T16:51:44.021Z,54.70
2023-01-29T16:54:22.119Z,54.70
2023-01-29T16:56:52.239Z,54.70
2023-01-29T16:59:34.502Z,54.80
2023-01-29T17:02:01.787Z,54.80
2023-01-29T17:04:28.547Z,54.40
2023-01-29T17:06:58.374Z,54.90
2023-01-29T17:09:31.769Z,55.00
2023-01-29T17:12:07.904Z,55.00
2023-01-29T17:14:41.842Z,55.10
2023-01-29T17:17:16.079Z,55.10
2023-01-29T17:19:42.748Z,55.10
2023-01-29T17:22:14.604Z,55.10
2023-01-29T17:24:44.245Z,55.70
2023-01-29T17:27:19.932Z,55.20
2023-01-29T17:29:46.879Z,55.20
2023-01-29T17:32:13.737Z,55.20
2023-01-29T17:34:40.469Z,55.10
2023-01-29T17:37:13.361Z,55.00
2023-01-29T17:39:40.364Z,54.90
2023-01-29T17:42:12.677Z,55.00
2023-01-29T17:44:40.325Z,55.00
2023-01-29T17:47:08.288Z,55.00
2023-01-29T17:49:37.949Z,55.00
2023-01-29T17:52:04.720Z,54.90
2023-01-29T17:54:31.350Z,55.00
2023-01-29T17:56:58.240Z,54.90
2023-01-29T17:59:29.693Z,54.90
2023-01-29T18:01:56.601Z,54.90
2023-01-29T18:04:23.332Z,54.90
2023-01-29T18:06:51.771Z,55.00
2023-01-29T18:09:20.541Z,54.90
2023-01-29T18:11:48.155Z,54.90
2023-01-29T18:14:15.372Z,54.90
2023-01-29T18:16:43.822Z,55.00
2023-01-29T18:19:12.897Z,55.20
2023-01-29T18:21:39.493Z,55.20
2023-01-29T18:24:06.385Z,54.80
2023-01-29T18:26:33.004Z,55.30
2023-01-29T18:28:59.635Z,55.30
2023-01-29T18:31:26.251Z,55.40
2023-01-29T18:33:52.931Z,55.40
2023-01-29T18:36:19.543Z,55.40
2023-01-29T18:38:46.193Z,55.50
2023-01-29T18:41:12.864Z,55.50
2023-01-29T18:43:41.362Z,55.50
2023-01-29T18:46:08.714Z,55.50
2023-01-29T18:48:35.649Z,55.60
2023-01-29T18:51:02.256Z,55.70
2023-01-29T18:53:28.961Z,55.70
2023-01-29T18:56:06.654Z,55.70
2023-01-29T18:58:36.428Z,55.70
2023-01-29T19:01:10.081Z,55.70
2023-01-29T19:03:40.500Z,55.80
2023-01-29T19:06:09.168Z,55.20
2023-01-29T19:08:36.416Z,55.70
2023-01-29T19:11:05.475Z,55.70
2023-01-29T19:13:32.774Z,55.70
2023-01-29T19:15:59.424Z,55.70
2023-01-29T19:18:27.326Z,55.70
2023-01-29T19:20:54.775Z,55.70
2023-01-29T19:23:21.959Z,55.70
2023-01-29T19:25:48.621Z,55.70
2023-01-29T19:28:15.498Z,55.70
2023-01-29T19:30:42.293Z,55.70
2023-01-29T19:33:09.604Z,55.70
2023-01-29T19:35:36.212Z,55.10
2023-01-29T19:38:04.407Z,55.70
2023-01-29T19:40:31.055Z,55.70
2023-01-29T19:42:58.321Z,55.50
2023-01-29T19:45:48.968Z,55.50
2023-01-29T19:48:14.371Z,55.50
2023-01-29T19:50:41.141Z,55.60
2023-01-29T19:53:07.789Z,55.50
2023-01-29T19:55:34.445Z,56.00
2023-01-29T19:58:01.114Z,55.60
2023-01-29T20:00:27.774Z,55.60
2023-01-29T20:02:54.378Z,55.60
2023-01-29T20:05:20.977Z,55.60
2023-01-29T20:07:49.635Z,55.50
2023-01-29T20:10:17.320Z,55.60
2023-01-29T20:12:45.301Z,55.50
2023-01-29T20:15:13.162Z,55.50
2023-01-29T20:17:39.741Z,55.60
2023-01-29T20:20:07.163Z,55.60
2023-01-29T20:22:33.759Z,55.60
2023-01-29T20:25:00.360Z,55.70
2023-01-29T20:27:26.957Z,55.70
2023-01-29T20:29:53.562Z,55.70
2023-01-29T20:32:20.240Z,55.60
2023-01-29T20:34:51.745Z,55.70
2023-01-29T20:37:19.225Z,55.70
2023-01-29T20:39:46.096Z,55.60
2023-01-29T20:42:12.922Z,55.70
2023-01-29T20:44:39.555Z,55.70
2023-01-29T20:47:06.157Z,55.70
2023-01-29T20:49:32.936Z,55.70
2023-01-29T20:51:59.575Z,55.60
2023-01-29T20:54:28.375Z,55.60
2023-01-29T20:56:55.288Z,55.60
2023-01-29T20:59:23.176Z,55.50
2023-01-29T21:01:49.831Z,55.50
2023-01-29T21:04:16.478Z,55.50
2023-01-29T21:06:43.086Z,55.00
2023-01-29T21:09:09.707Z,55.40
2023-01-29T21:11:36.350Z,55.40
2023-01-29T21:14:02.991Z,55.40
2023-01-29T21:16:29.732Z,55.50
2023-01-29T21:18:57.632Z,55.40
2023-01-29T21:21:26.365Z,55.40
2023-01-29T21:23:53.152Z,55.40
2023-01-29T21:26:19.870Z,55.50
2023-01-29T21:28:46.686Z,55.40
2023-01-29T21:31:14.492Z,56.10
2023-01-29T21:33:41.306Z,55.40
2023-01-29T21:36:09.873Z,55.40
2023-01-29T21:38:36.876Z,55.50
2023-01-29T21:41:06.321Z,55.40
2023-01-29T21:43:33.297Z,55.40
2023-01-29T21:46:11.127Z,55.30
2023-01-29T21:48:39.237Z,55.30
2023-01-29T21:51:06.427Z,55.20
2023-01-29T21:53:33.360Z,55.20
2023-01-29T21:56:04.080Z,55.10
2023-01-29T21:58:31.634Z,55.60
2023-01-29T22:01:35.127Z,55.00
2023-01-29T22:03:47.016Z,55.00
2023-01-29T22:06:14.132Z,55.00
2023-01-29T22:08:40.749Z,55.00
2023-01-29T22:11:08.456Z,55.00
2023-01-29T22:13:35.328Z,54.80
2023-01-29T22:16:02.033Z,54.40
2023-01-29T22:18:28.646Z,54.80
2023-01-29T22:20:56.492Z,54.80
2023-01-29T22:23:25.551Z,54.70
2023-01-29T22:25:52.156Z,54.10
2023-01-29T22:28:19.015Z,54.60
2023-01-29T22:30:45.772Z,54.60
2023-01-29T22:33:12.511Z,54.50
2023-01-29T22:35:39.144Z,54.40
2023-01-29T22:38:06.421Z,54.30
2023-01-29T22:40:33.163Z,54.40
2023-01-29T22:42:59.796Z,54.40
2023-01-29T22:45:27.169Z,54.40
2023-01-29T22:47:53.769Z,54.40
2023-01-29T22:50:20.622Z,54.30
2023-01-29T22:52:53.327Z,54.30
2023-01-29T22:55:20.076Z,54.20
2023-01-29T22:57:49.710Z,54.20
2023-01-29T23:00:17.208Z,54.10
2023-01-29T23:02:45.869Z,54.10
2023-01-29T23:05:12.445Z,53.60
2023-01-29T23:07:39.117Z,54.00
2023-01-29T23:10:07.209Z,54.00
2023-01-29T23:12:33.997Z,53.80
2023-01-29T23:15:00.591Z,53.80
2023-01-29T23:17:27.245Z,53.80
2023-01-29T23:19:53.817Z,53.80
2023-01-29T23:22:20.397Z,53.70
2023-01-29T23:24:47.015Z,53.70
2023-01-29T23:27:16.489Z,53.70
2023-01-29T23:29:45.025Z,53.60
2023-01-29T23:32:14.605Z,53.60
2023-01-29T23:34:41.280Z,53.50
2023-01-29T23:37:07.878Z,53.60
2023-01-29T23:39:35.081Z,53.50
2023-01-29T23:42:02.083Z,53.60
2023-01-29T23:44:29.018Z,54.00
2023-01-29T23:46:55.722Z,53.40
2023-01-29T23:49:22.453Z,53.40
2023-01-29T23:51:49.907Z,53.30
2023-01-29T23:54:17.538Z,53.30
2023-01-29T23:56:45.021Z,53.20
2023-01-29T23:59:11.718Z,53.20
